createdAt,value
2023-11-01T00:01:28.194Z,10.83
2023-11-01T00:03:58.104Z,10.86
2023-11-01T00:06:27.955Z,10.89
2023-11-01T00:08:59.454Z,10.92
2023-11-01T00:11:29.306Z,10.94
2023-11-01T00:13:59.077Z,10.96
2023-11-01T00:16:31.509Z,10.98
2023-11-01T00:19:01.297Z,10.99
2023-11-01T00:21:31.125Z,10.99
2023-11-01T00:24:01.447Z,11.01
2023-11-01T00:26:31.209Z,11.02
2023-11-01T00:29:01.273Z,11.03
2023-11-01T00:31:33.748Z,11.04
2023-11-01T00:34:03.553Z,11.05
2023-11-01T00:36:33.381Z,11.00
2023-11-01T00:39:03.254Z,10.99
2023-11-01T00:41:34.300Z,10.96
2023-11-01T00:44:04.104Z,10.95
2023-11-01T00:46:36.543Z,10.94
2023-11-01T00:49:06.422Z,10.91
2023-11-01T00:51:36.492Z,10.88
2023-11-01T00:54:07.194Z,10.87
2023-11-01T00:56:37.102Z,10.86
2023-11-01T00:59:06.985Z,10.84
2023-11-01T01:01:39.311Z,10.83
2023-11-01T01:04:09.270Z,10.83
2023-11-01T01:06:39.498Z,10.82
2023-11-01T01:09:15.671Z,10.82
2023-11-01T01:11:47.665Z,10.82
2023-11-01T01:14:19.083Z,10.81
2023-11-01T01:16:51.631Z,10.77
2023-11-01T01:19:23.406Z,10.74
2023-11-01T01:21:53.245Z,10.69
2023-11-01T01:24:23.208Z,10.65
2023-11-01T01:26:52.983Z,10.62
2023-11-01T01:29:22.873Z,10.59
2023-11-01T01:31:55.257Z,10.58
2023-11-01T01:34:25.010Z,10.56
2023-11-01T01:36:54.808Z,10.55
2023-11-01T01:39:24.611Z,10.53
2023-11-01T01:41:54.446Z,10.50
2023-11-01T01:44:24.337Z,10.49
2023-11-01T01:46:59.066Z,10.47
2023-11-01T01:49:33.339Z,10.46
2023-11-01T01:52:09.878Z,10.45
2023-11-01T01:54:40.790Z,10.45
2023-11-01T01:57:11.065Z,10.46
2023-11-01T01:59:41.030Z,10.48
2023-11-01T02:02:13.966Z,10.49
2023-11-01T02:04:43.775Z,10.48
2023-11-01T02:07:13.768Z,10.49
2023-11-01T02:09:43.728Z,10.49
2023-11-01T02:12:13.667Z,10.49
2023-11-01T02:14:43.554Z,10.49
2023-11-01T02:17:16.094Z,10.49
2023-11-01T02:19:46.042Z,10.48
2023-11-01T02:22:15.825Z,10.47
2023-11-01T02:24:48.549Z,10.46
2023-11-01T02:27:18.407Z,10.46
2023-11-01T02:29:49.146Z,10.45
2023-11-01T02:32:19.003Z,10.47
2023-11-01T02:34:48.864Z,10.44
2023-11-01T02:37:18.680Z,10.45
2023-11-01T02:39:51.054Z,10.46
2023-11-01T02:42:20.818Z,10.47
2023-11-01T02:44:50.574Z,10.48
2023-11-01T02:47:20.383Z,10.47
2023-11-01T02:49:50.238Z,10.49
2023-11-01T02:52:20.033Z,10.47
2023-11-01T02:54:52.709Z,10.47
2023-11-01T02:57:22.484Z,10.47
2023-11-01T02:59:52.313Z,10.47
2023-11-01T03:02:22.139Z,10.46
2023-11-01T03:04:51.910Z,10.45
2023-11-01T03:07:21.757Z,10.45
2023-11-01T03:09:54.215Z,10.44
2023-11-01T03:12:24.011Z,10.42
2023-11-01T03:14:53.777Z,10.41
2023-11-01T03:17:23.615Z,10.41
2023-11-01T03:19:53.443Z,10.40
2023-11-01T03:22:24.423Z,10.37
2023-11-01T03:24:56.866Z,10.36
2023-11-01T03:27:26.674Z,10.35
2023-11-01T03:29:57.334Z,10.33
2023-11-01T03:32:27.200Z,10.33
2023-11-01T03:34:57.073Z,10.33
2023-11-01T03:37:26.894Z,10.32
2023-11-01T03:39:59.271Z,10.31
2023-11-01T03:42:29.053Z,10.30
2023-11-01T03:44:59.458Z,10.28
2023-11-01T03:47:30.506Z,10.27
2023-11-01T03:50:01.749Z,10.27
2023-11-01T03:52:31.689Z,10.27
2023-11-01T03:55:04.475Z,10.25
2023-11-01T03:57:34.451Z,10.25
2023-11-01T04:00:04.890Z,10.26
2023-11-01T04:02:34.745Z,10.29
2023-11-01T04:05:05.409Z,10.30
2023-11-01T04:07:35.223Z,10.33
2023-11-01T04:10:11.195Z,10.32
2023-11-01T04:12:41.102Z,10.31
2023-11-01T04:15:14.041Z,10.29
2023-11-01T04:17:43.851Z,10.28
2023-11-01T04:20:14.689Z,10.27
2023-11-01T04:22:44.580Z,10.27
2023-11-01T04:25:16.956Z,10.29
2023-11-01T04:27:48.392Z,10.30
2023-11-01T04:30:19.477Z,10.29
2023-11-01T04:32:50.902Z,10.28
2023-11-01T04:35:21.158Z,10.26
2023-11-01T04:37:51.005Z,10.26
2023-11-01T04:40:23.390Z,10.26
2023-11-01T04:42:53.178Z,10.29
2023-11-01T04:45:23.148Z,10.32
2023-11-01T04:47:52.979Z,10.33
2023-11-01T04:50:23.218Z,10.35
2023-11-01T04:52:53.026Z,10.39
2023-11-01T04:55:25.667Z,10.41
2023-11-01T04:57:55.408Z,10.41
2023-11-01T05:00:25.565Z,10.44
2023-11-01T05:02:55.794Z,10.45
2023-11-01T05:05:25.904Z,10.46
2023-11-01T05:07:56.254Z,10.49
2023-11-01T05:10:28.803Z,10.50
2023-11-01T05:12:56.015Z,10.51
2023-11-01T05:15:25.787Z,10.54
2023-11-01T05:17:55.626Z,10.56
2023-11-01T05:20:25.460Z,10.58
2023-11-01T05:22:55.289Z,10.60
2023-11-01T05:25:30.067Z,10.62
2023-11-01T05:28:03.150Z,10.63
2023-11-01T05:30:32.996Z,10.66
2023-11-01T05:33:03.213Z,10.69
2023-11-01T05:35:38.006Z,10.71
2023-11-01T05:38:09.529Z,10.72
2023-11-01T05:40:39.350Z,10.72
2023-11-01T05:43:12.014Z,10.71
2023-11-01T05:45:42.057Z,10.72
2023-11-01T05:48:11.949Z,10.72
2023-11-01T05:50:42.751Z,10.72
2023-11-01T05:53:12.595Z,10.74
2023-11-01T05:55:54.506Z,10.75
2023-11-01T05:58:35.077Z,10.77
2023-11-01T06:01:04.904Z,10.79
2023-11-01T06:03:34.888Z,10.82
2023-11-01T06:06:04.816Z,10.83
2023-11-01T06:08:34.720Z,10.86
2023-11-01T06:11:04.588Z,10.89
2023-11-01T06:13:37.236Z,10.89
2023-11-01T06:16:09.219Z,10.89
2023-11-01T06:18:38.959Z,10.88
2023-11-01T06:21:09.470Z,10.89
2023-11-01T06:23:39.807Z,10.89
2023-11-01T06:26:09.788Z,10.91
2023-11-01T06:28:42.173Z,10.94
2023-11-01T06:31:12.071Z,10.96
2023-11-01T06:33:42.109Z,10.98
2023-11-01T06:36:12.587Z,11.01
2023-11-01T06:38:42.389Z,11.05
2023-11-01T06:41:12.466Z,11.08
2023-11-01T06:43:45.480Z,11.11
2023-11-01T06:46:15.485Z,11.12
2023-11-01T06:48:45.473Z,11.15
2023-11-01T06:51:15.716Z,11.18
2023-11-01T06:53:45.772Z,11.23
2023-11-01T06:56:15.638Z,11.24
2023-11-01T06:58:48.003Z,11.26
2023-11-01T07:01:17.777Z,11.29
2023-11-01T07:03:47.721Z,11.31
2023-11-01T07:06:17.547Z,11.35
2023-11-01T07:08:48.013Z,11.40
2023-11-01T07:11:20.186Z,11.43
2023-11-01T07:13:52.790Z,11.42
2023-11-01T07:16:22.564Z,11.42
2023-11-01T07:18:52.337Z,11.44
2023-11-01T07:21:22.339Z,11.47
2023-11-01T07:23:52.321Z,11.51
2023-11-01T07:26:22.290Z,11.55
2023-11-01T07:28:54.826Z,11.60
2023-11-01T07:31:24.634Z,11.66
2023-11-01T07:33:54.792Z,11.75
2023-11-01T07:36:24.970Z,11.83
2023-11-01T07:38:54.911Z,11.92
2023-11-01T07:41:24.761Z,12.03
2023-11-01T07:43:57.141Z,12.12
2023-11-01T07:46:26.960Z,12.22
2023-11-01T07:48:56.711Z,12.31
2023-11-01T07:51:26.687Z,12.38
2023-11-01T07:53:57.283Z,12.46
2023-11-01T07:56:27.093Z,12.51
2023-11-01T07:58:59.451Z,12.56
2023-11-01T08:01:29.330Z,12.60
2023-11-01T08:03:59.252Z,12.63
2023-11-01T08:06:29.108Z,12.65
2023-11-01T08:08:59.724Z,12.67
2023-11-01T08:11:29.541Z,12.70
2023-11-01T08:14:01.949Z,12.75
2023-11-01T08:16:32.069Z,12.82
2023-11-01T08:19:01.935Z,12.90
2023-11-01T08:21:33.638Z,12.98
2023-11-01T08:24:03.493Z,13.09
2023-11-01T08:26:33.324Z,13.26
2023-11-01T08:29:05.868Z,13.47
2023-11-01T08:31:35.705Z,13.68
2023-11-01T08:34:05.684Z,13.90
2023-11-01T08:36:35.543Z,14.01
2023-11-01T08:39:05.407Z,14.03
2023-11-01T08:41:35.284Z,14.04
2023-11-01T08:44:08.221Z,14.20
2023-11-01T08:46:38.001Z,14.50
2023-11-01T08:49:07.764Z,14.70
2023-11-01T08:51:39.473Z,14.78
2023-11-01T08:54:10.607Z,14.86
2023-11-01T08:56:40.507Z,14.98
2023-11-01T08:59:12.945Z,15.06
2023-11-01T09:01:42.907Z,15.16
2023-11-01T09:04:15.055Z,15.25
2023-11-01T09:06:44.975Z,15.30
2023-11-01T09:09:15.209Z,15.43
2023-11-01T09:11:46.158Z,15.50
2023-11-01T09:14:18.586Z,15.45
2023-11-01T09:16:48.381Z,15.27
2023-11-01T09:19:18.175Z,15.12
2023-11-01T09:21:48.394Z,15.03
2023-11-01T09:24:18.165Z,15.01
2023-11-01T09:26:48.591Z,15.06
2023-11-01T09:29:21.090Z,15.07
2023-11-01T09:31:50.931Z,15.14
2023-11-01T09:34:20.859Z,15.23
2023-11-01T09:36:50.672Z,15.26
2023-11-01T09:39:20.627Z,15.20
2023-11-01T09:41:53.879Z,15.07
2023-11-01T09:44:26.313Z,14.95
2023-11-01T09:46:56.249Z,14.83
2023-11-01T09:49:26.356Z,14.76
2023-11-01T09:51:56.316Z,14.69
2023-11-01T09:54:26.285Z,14.67
2023-11-01T09:56:59.081Z,14.65
2023-11-01T09:59:33.837Z,14.66
2023-11-01T10:02:03.791Z,14.63
2023-11-01T10:04:35.792Z,14.59
2023-11-01T10:07:05.610Z,14.57
2023-11-01T10:09:35.434Z,14.58
2023-11-01T10:12:09.167Z,14.68
2023-11-01T10:14:41.651Z,14.82
2023-11-01T10:17:11.521Z,14.97
2023-11-01T10:19:45.465Z,15.06
2023-11-01T10:22:15.271Z,15.11
2023-11-01T10:24:45.585Z,15.07
2023-11-01T10:27:15.428Z,15.03
2023-11-01T10:29:49.329Z,14.98
2023-11-01T10:32:18.998Z,14.98
2023-11-01T10:34:48.811Z,14.98
2023-11-01T10:37:25.763Z,15.08
2023-11-01T10:39:57.044Z,15.23
2023-11-01T10:42:27.090Z,15.40
2023-11-01T10:44:59.539Z,15.52
2023-11-01T10:47:29.534Z,15.58
2023-11-01T10:50:00.830Z,15.52
2023-11-01T10:52:31.174Z,15.52
2023-11-01T10:55:02.203Z,15.56
2023-11-01T10:57:32.314Z,15.57
2023-11-01T11:00:14.039Z,15.59
2023-11-01T11:02:50.881Z,15.57
2023-11-01T11:05:31.281Z,15.47
2023-11-01T11:08:01.144Z,15.39
2023-11-01T11:10:34.436Z,15.32
2023-11-01T11:13:29.968Z,15.22
2023-11-01T11:16:01.467Z,15.03
2023-11-01T11:18:53.242Z,14.89
2023-11-01T11:21:53.143Z,14.76
2023-11-01T11:24:56.879Z,14.63
2023-11-01T11:27:57.143Z,14.51
2023-11-01T11:31:07.435Z,14.50
2023-11-01T11:33:38.348Z,14.55
2023-11-01T11:36:16.281Z,14.60
2023-11-01T11:38:53.818Z,14.62
2023-11-01T11:41:25.172Z,14.64
2023-11-01T11:44:12.492Z,14.66
2023-11-01T11:46:43.637Z,14.63
2023-11-01T11:49:24.410Z,14.60
2023-11-01T11:51:55.834Z,14.58
2023-11-01T11:54:27.640Z,14.53
2023-11-01T11:56:57.921Z,14.47
2023-11-01T11:59:31.462Z,14.43
2023-11-01T12:02:11.435Z,14.41
2023-11-01T12:04:44.221Z,14.40
2023-11-01T12:07:20.033Z,14.41
2023-11-01T12:09:53.401Z,14.38
2023-11-01T12:12:23.315Z,14.37
2023-11-01T12:15:03.237Z,14.36
2023-11-01T12:17:34.795Z,14.34
2023-11-01T12:20:04.741Z,14.32
2023-11-01T12:22:38.651Z,14.30
2023-11-01T12:25:09.892Z,14.28
2023-11-01T12:27:41.620Z,14.32
2023-11-01T12:30:23.826Z,14.38
2023-11-01T12:32:54.539Z,14.48
2023-11-01T12:35:24.406Z,14.53
2023-11-01T12:37:54.213Z,14.54
2023-11-01T12:40:28.061Z,14.58
2023-11-01T12:43:11.300Z,14.62
2023-11-01T12:45:43.750Z,14.67
2023-11-01T12:48:13.825Z,14.70
2023-11-01T12:50:43.714Z,14.72
2023-11-01T12:53:13.959Z,14.72
2023-11-01T12:55:43.782Z,14.68
2023-11-01T12:58:16.558Z,14.61
2023-11-01T13:00:49.042Z,14.52
2023-11-01T13:03:18.982Z,14.48
2023-11-01T13:05:49.204Z,14.48
2023-11-01T13:08:19.533Z,14.49
2023-11-01T13:10:49.323Z,14.46
2023-11-01T13:13:19.287Z,14.42
2023-11-01T13:15:51.742Z,14.36
2023-11-01T13:18:21.673Z,14.30
2023-11-01T13:20:51.838Z,14.20
2023-11-01T13:23:21.629Z,14.13
2023-11-01T13:25:51.709Z,14.08
2023-11-01T13:28:22.075Z,14.04
2023-11-01T13:30:54.581Z,14.03
2023-11-01T13:33:24.439Z,14.01
2023-11-01T13:35:54.406Z,13.97
2023-11-01T13:38:24.171Z,13.92
2023-11-01T13:40:53.940Z,13.86
2023-11-01T13:43:23.710Z,13.78
2023-11-01T13:45:56.293Z,13.70
2023-11-01T13:48:26.211Z,13.64
2023-11-01T13:50:56.421Z,13.59
2023-11-01T13:53:27.002Z,13.56
2023-11-01T13:55:56.798Z,13.54
2023-11-01T13:58:27.927Z,13.51
2023-11-01T14:01:01.755Z,13.47
2023-11-01T14:03:33.771Z,13.44
2023-11-01T14:06:03.909Z,13.42
2023-11-01T14:08:33.944Z,13.38
2023-11-01T14:11:03.905Z,13.35
2023-11-01T14:13:33.716Z,13.30
2023-11-01T14:16:06.269Z,13.26
2023-11-01T14:18:36.111Z,13.20
2023-11-01T14:21:06.394Z,13.16
2023-11-01T14:23:36.240Z,13.14
2023-11-01T14:26:06.137Z,13.13
2023-11-01T14:28:35.955Z,13.11
2023-11-01T14:31:08.352Z,13.10
2023-11-01T14:33:38.537Z,13.08
2023-11-01T14:36:09.934Z,13.06
2023-11-01T14:38:39.756Z,13.04
2023-11-01T14:41:09.647Z,13.03
2023-11-01T14:43:39.444Z,13.00
2023-11-01T14:46:12.034Z,12.96
2023-11-01T14:48:44.535Z,12.96
2023-11-01T14:51:14.451Z,12.95
2023-11-01T14:53:44.275Z,12.94
2023-11-01T14:56:17.792Z,12.94
2023-11-01T14:58:50.114Z,12.92
2023-11-01T15:01:22.673Z,12.90
2023-11-01T15:03:52.827Z,12.88
2023-11-01T15:06:22.694Z,12.85
2023-11-01T15:08:52.634Z,12.85
2023-11-01T15:11:22.588Z,12.83
2023-11-01T15:13:52.737Z,12.82
2023-11-01T15:16:25.174Z,12.79
2023-11-01T15:18:54.959Z,12.78
2023-11-01T15:21:24.872Z,12.77
2023-11-01T15:23:54.689Z,12.75
2023-11-01T15:26:26.011Z,12.74
2023-11-01T15:28:56.658Z,12.74
2023-11-01T15:31:29.025Z,12.72
2023-11-01T15:34:00.125Z,12.72
2023-11-01T15:36:30.079Z,12.70
2023-11-01T15:39:00.035Z,12.70
2023-11-01T15:41:29.944Z,12.72
2023-11-01T15:43:59.732Z,12.72
2023-11-01T15:46:32.359Z,12.74
2023-11-01T15:49:02.257Z,12.72
2023-11-01T15:51:32.058Z,12.72
2023-11-01T15:54:01.886Z,12.70
2023-11-01T15:56:31.694Z,12.74
2023-11-01T15:59:01.795Z,12.75
2023-11-01T16:01:34.206Z,12.76
2023-11-01T16:04:04.292Z,12.76
2023-11-01T16:06:34.490Z,12.76
2023-11-01T16:09:05.636Z,12.77
2023-11-01T16:11:35.692Z,12.77
2023-11-01T16:14:06.177Z,12.77
2023-11-01T16:16:38.922Z,12.77
2023-11-01T16:19:09.357Z,12.76
2023-11-01T16:21:39.162Z,12.78
2023-11-01T16:24:10.003Z,12.76
2023-11-01T16:26:39.790Z,12.74
2023-11-01T16:29:09.607Z,12.71
2023-11-01T16:31:42.031Z,12.65
2023-11-01T16:34:11.952Z,12.58
2023-11-01T16:36:41.737Z,12.51
2023-11-01T16:39:11.664Z,12.45
2023-11-01T16:41:42.072Z,12.40
2023-11-01T16:44:11.980Z,12.41
2023-11-01T16:46:44.345Z,12.38
2023-11-01T16:49:14.894Z,12.36
2023-11-01T16:51:47.125Z,12.38
2023-11-01T16:54:19.695Z,12.39
2023-11-01T16:56:49.750Z,12.42
2023-11-01T16:59:19.822Z,12.45
2023-11-01T17:01:52.333Z,12.50
2023-11-01T17:04:22.240Z,12.53
2023-11-01T17:06:52.065Z,12.55
2023-11-01T17:09:21.940Z,12.58
2023-11-01T17:11:52.416Z,12.62
2023-11-01T17:14:22.203Z,12.65
2023-11-01T17:16:54.876Z,12.67
2023-11-01T17:19:24.649Z,12.68
2023-11-01T17:21:55.121Z,12.70
2023-11-01T17:24:27.758Z,12.69
2023-11-01T17:26:58.881Z,12.70
2023-11-01T17:29:33.574Z,12.70
2023-11-01T17:32:06.282Z,12.71
2023-11-01T17:34:36.144Z,12.70
2023-11-01T17:37:07.166Z,12.70
2023-11-01T17:39:41.574Z,12.69
2023-11-01T17:42:12.636Z,12.64
2023-11-01T17:44:45.761Z,12.59
2023-11-01T17:47:27.222Z,12.52
2023-11-01T17:50:01.684Z,12.45
2023-11-01T17:52:37.254Z,12.41
2023-11-01T17:55:09.682Z,12.36
2023-11-01T17:57:41.109Z,12.32
2023-11-01T18:00:12.092Z,12.29
2023-11-01T18:03:26.824Z,12.29
2023-11-01T18:06:10.501Z,12.26
2023-11-01T18:08:41.406Z,12.24
2023-11-01T18:11:12.957Z,12.21
2023-11-01T18:13:43.934Z,12.15
2023-11-01T18:16:14.050Z,12.05
2023-11-01T18:18:42.990Z,11.92
2023-11-01T18:21:19.608Z,11.81
2023-11-01T18:23:55.062Z,11.73
2023-11-01T18:26:25.289Z,11.63
2023-11-01T18:28:56.596Z,11.58
2023-11-01T18:31:29.061Z,11.50
2023-11-01T18:34:02.860Z,11.45
2023-11-01T18:36:41.450Z,11.37
2023-11-01T18:39:13.200Z,11.29
2023-11-01T18:41:45.015Z,11.25
2023-11-01T18:44:26.544Z,11.20
2023-11-01T18:46:56.783Z,11.14
2023-11-01T18:50:05.758Z,11.10
2023-11-01T18:52:38.233Z,11.03
2023-11-01T18:55:11.164Z,11.03
2023-11-01T18:57:41.527Z,11.05
2023-11-01T19:00:12.710Z,11.07
2023-11-01T19:03:08.636Z,11.15
2023-11-01T19:05:39.080Z,11.22
2023-11-01T19:08:11.620Z,11.28
2023-11-01T19:10:42.716Z,11.33
2023-11-01T19:13:13.842Z,11.38
2023-11-01T19:16:25.197Z,11.43
2023-11-01T19:18:56.407Z,11.44
2023-11-01T19:21:26.600Z,11.40
2023-11-01T19:23:59.397Z,11.28
2023-11-01T19:26:30.485Z,11.15
2023-11-01T19:29:00.458Z,11.01
2023-11-01T19:31:33.324Z,10.89
2023-11-01T19:34:03.297Z,10.77
2023-11-01T19:36:30.685Z,10.66
2023-11-01T19:39:03.358Z,10.58
2023-11-01T19:41:33.285Z,10.50
2023-11-01T19:44:04.786Z,10.44
2023-11-01T19:46:37.838Z,10.37
2023-11-01T19:49:07.973Z,10.35
2023-11-01T19:51:38.040Z,10.35
2023-11-01T19:54:11.441Z,10.39
2023-11-01T19:56:41.554Z,10.46
2023-11-01T19:59:12.671Z,10.53
2023-11-01T20:01:42.616Z,10.58
2023-11-01T20:04:12.387Z,10.61
2023-11-01T20:06:42.476Z,10.60
2023-11-01T20:09:15.108Z,10.53
2023-11-01T20:11:45.080Z,10.43
2023-11-01T20:14:18.725Z,10.32
2023-11-01T20:16:48.615Z,10.26
2023-11-01T20:19:19.105Z,10.27
2023-11-01T20:21:48.947Z,10.30
2023-11-01T20:24:21.333Z,10.37
2023-11-01T20:26:51.644Z,10.42
2023-11-01T20:29:21.446Z,10.47
2023-11-01T20:31:51.706Z,10.52
2023-11-01T20:34:21.578Z,10.56
2023-11-01T20:36:51.360Z,10.59
2023-11-01T20:39:23.812Z,10.62
2023-11-01T20:41:53.733Z,10.64
2023-11-01T20:44:25.759Z,10.65
2023-11-01T20:46:55.803Z,10.67
2023-11-01T20:49:26.129Z,10.70
2023-11-01T20:51:55.908Z,10.71
2023-11-01T20:54:29.777Z,10.74
2023-11-01T20:56:59.544Z,10.73
2023-11-01T20:59:30.963Z,10.74
2023-11-01T21:02:01.137Z,10.73
2023-11-01T21:04:31.756Z,10.74
2023-11-01T21:07:04.157Z,10.75
2023-11-01T21:09:37.234Z,10.75
2023-11-01T21:12:07.304Z,10.74
2023-11-01T21:14:38.577Z,10.75
2023-11-01T21:17:09.710Z,10.75
2023-11-01T21:19:39.577Z,10.74
2023-11-01T21:22:09.952Z,10.73
2023-11-01T21:24:42.475Z,10.74
2023-11-01T21:27:12.275Z,10.73
2023-11-01T21:29:42.537Z,10.73
2023-11-01T21:32:12.402Z,10.73
2023-11-01T21:34:42.679Z,10.73
2023-11-01T21:37:12.701Z,10.73
2023-11-01T21:39:45.032Z,10.73
2023-11-01T21:42:15.537Z,10.74
2023-11-01T21:44:45.705Z,10.74
2023-11-01T21:47:16.419Z,10.74
2023-11-01T21:49:47.859Z,10.72
2023-11-01T21:52:22.025Z,10.74
2023-11-01T21:54:54.763Z,10.75
2023-11-01T21:57:29.388Z,10.75
2023-11-01T22:00:02.268Z,10.76
2023-11-01T22:02:49.803Z,10.77
2023-11-01T22:05:20.989Z,10.77
2023-11-01T22:07:53.255Z,10.78
2023-11-01T22:10:37.479Z,10.78
2023-11-01T22:13:07.576Z,10.79
2023-11-01T22:15:39.437Z,10.81
2023-11-01T22:18:09.575Z,10.81
2023-11-01T22:20:39.435Z,10.82
2023-11-01T22:23:09.255Z,10.83
2023-11-01T22:25:42.448Z,10.83
2023-11-01T22:28:12.921Z,10.82
2023-11-01T22:30:42.647Z,10.80
2023-11-01T22:33:15.078Z,10.77
2023-11-01T22:35:46.782Z,10.70
2023-11-01T22:38:15.363Z,10.64
2023-11-01T22:40:48.211Z,10.56
2023-11-01T22:43:19.464Z,10.48
2023-11-01T22:45:49.284Z,10.40
2023-11-01T22:48:19.598Z,10.37
2023-11-01T22:50:49.478Z,10.30
2023-11-01T22:53:21.050Z,10.25
2023-11-01T22:55:53.533Z,10.19
2023-11-01T22:58:23.315Z,10.18
2023-11-01T23:00:54.070Z,10.21
2023-11-01T23:03:23.910Z,10.24
2023-11-01T23:05:53.889Z,10.26
2023-11-01T23:08:23.677Z,10.22
2023-11-01T23:10:56.111Z,10.16
2023-11-01T23:13:23.311Z,10.09
2023-11-01T23:15:53.137Z,10.03
2023-11-01T23:18:22.992Z,9.97
2023-11-01T23:20:52.855Z,9.91
2023-11-01T23:23:23.837Z,9.86
2023-11-01T23:25:58.691Z,9.80
2023-11-01T23:28:42.458Z,9.78
2023-11-01T23:31:14.139Z,9.73
2023-11-01T23:33:44.676Z,9.69
2023-11-01T23:36:19.838Z,9.65
2023-11-01T23:38:56.447Z,9.60
2023-11-01T23:41:41.034Z,9.58
2023-11-01T23:44:10.966Z,9.54
2023-11-01T23:46:40.955Z,9.51
2023-11-01T23:49:10.923Z,9.48
2023-11-01T23:51:59.333Z,9.47
2023-11-01T23:54:30.677Z,9.42
2023-11-01T23:57:12.808Z,9.38
2023-11-01T23:59:43.943Z,9.35
